Time;durP1;ratioP1;P1;durP2;ratioP2;P2;SDS_P1;SDS_P2;PMS_P1;PMS_P2;Temp;Humidity;BMP_temperature;BMP_pressure;BME280_temperature;BME280_humidity;BME280_pressure;Samples;Min_cycle;Max_cycle;Signal;HPM_P1;HPM_P2
2022/04/20 00:00:15;;;;;;;6.38;3.13;;;7.70;99.90;;;;;;5012531;28;19988;-73
2022/04/20 00:02:41;;;;;;;7.25;3.17;;;7.70;99.90;;;;;;5012924;28;20078;-73
2022/04/20 00:05:07;;;;;;;;;;;7.60;99.90;;;;;;5011946;28;20127;-74
2022/04/20 00:07:36;;;;;;;6.22;3.15;;;7.60;99.90;;;;;;5013057;28;19921;-74
2022/04/20 00:10:02;;;;;;;5.90;3.28;;;7.60;99.90;;;;;;5011142;28;20128;-73
2022/04/20 00:12:27;;;;;;;;;;;7.60;99.90;;;;;;5013269;28;20082;-73
2022/04/20 00:14:53;;;;;;;7.43;2.80;;;7.60;99.90;;;;;;5012954;28;19921;-73
2022/04/20 00:17:18;;;;;;;;;;;7.50;99.90;;;;;;5013230;28;20125;-73
2022/04/20 00:19:44;;;;;;;6.05;3.20;;;7.50;99.90;;;;;;5011483;28;19932;-73
2022/04/20 00:22:09;;;;;;;;;;;7.50;99.90;;;;;;5012038;28;20045;-73
2022/04/20 00:24:35;;;;;;;5.70;2.70;;;7.50;99.90;;;;;;5011857;28;19928;-74
2022/04/20 00:27:00;;;;;;;;;;;7.40;99.90;;;;;;5013073;28;20088;-73
2022/04/20 00:29:26;;;;;;;6.72;3.10;;;7.40;99.90;;;;;;5024218;28;20353;-74
2022/04/20 00:31:52;;;;;;;;;;;7.30;99.90;;;;;;5030416;28;20107;-74
2022/04/20 00:34:17;;;;;;;6.90;2.92;;;7.30;99.90;;;;;;5032342;28;20020;-74
2022/04/20 00:36:43;;;;;;;;;;;7.30;99.90;;;;;;5030916;28;20408;-74
2022/04/20 00:39:08;;;;;;;6.43;3.28;;;7.30;99.90;;;;;;5032011;28;19928;-74
2022/04/20 00:41:34;;;;;;;;;;;7.30;99.90;;;;;;5031156;28;20038;-74
2022/04/20 00:44:01;;;;;;;6.18;3.22;;;7.20;99.90;;;;;;5031822;28;20017;-74
2022/04/20 00:46:28;;;;;;;5.88;2.70;;;7.20;99.90;;;;;;5032569;28;20401;-74
2022/04/20 00:48:55;;;;;;;5.85;3.05;;;7.10;99.90;;;;;;5031076;28;20045;-74
2022/04/20 00:51:21;;;;;;;5.05;2.80;;;7.10;99.90;;;;;;5028487;28;20172;-74
2022/04/20 00:53:46;;;;;;;;;;;7.00;99.90;;;;;;5031426;28;20128;-74
2022/04/20 00:56:12;;;;;;;5.38;3.15;;;7.00;99.90;;;;;;5030868;28;20307;-74
2022/04/20 00:58:40;;;;;;;4.78;2.75;;;6.90;99.90;;;;;;5030449;28;20056;-74
2022/04/20 01:01:07;;;;;;;4.68;2.90;;;6.90;99.90;;;;;;5030591;28;20053;-74
2022/04/20 01:03:33;;;;;;;4.00;2.47;;;6.90;99.90;;;;;;5030709;28;20049;-74
2022/04/20 01:05:58;;;;;;;;;;;6.90;99.90;;;;;;5031793;28;20056;-73
2022/04/20 01:08:24;;;;;;;4.90;2.47;;;6.80;99.90;;;;;;5030353;28;20024;-74
2022/04/20 01:10:49;;;;;;;;;;;6.80;99.90;;;;;;5032696;28;20064;-74
2022/04/20 01:13:15;;;;;;;6.38;2.60;;;6.80;99.90;;;;;;5029879;28;20369;-74
2022/04/20 01:15:41;;;;;;;;;;;6.70;99.90;;;;;;5031697;28;20103;-74
2022/04/20 01:18:14;;;;;;;5.32;2.88;;;6.60;99.90;;;;;;5030679;28;20448;-74
2022/04/20 01:20:40;;;;;;;4.68;2.80;;;6.60;99.90;;;;;;5031800;28;20045;-74
2022/04/20 01:23:06;;;;;;;;;;;6.60;99.90;;;;;;5032132;28;20123;-74
2022/04/20 01:25:31;;;;;;;5.25;2.67;;;6.60;99.90;;;;;;5030046;28;19928;-74
2022/04/20 01:27:57;;;;;;;;;;;6.50;99.90;;;;;;5030902;28;20044;-74
2022/04/20 01:30:22;;;;;;;4.55;2.75;;;6.50;99.90;;;;;;5032374;28;19916;-74
2022/04/20 01:32:48;;;;;;;;;;;6.50;99.90;;;;;;5031131;28;20084;-74
2022/04/20 01:35:13;;;;;;;3.85;2.45;;;6.40;99.90;;;;;;5034362;28;20356;-74
2022/04/20 01:37:39;;;;;;;;;;;6.40;99.90;;;;;;5035829;28;20046;-74
2022/04/20 01:40:05;;;;;;;5.25;2.78;;;6.40;99.90;;;;;;5032912;28;19925;-74
2022/04/20 01:42:32;;;;;;;5.03;2.80;;;6.30;99.90;;;;;;5035814;28;20033;-74
2022/04/20 01:44:58;;;;;;;5.47;2.85;;;6.30;99.90;;;;;;5033855;28;20085;-74
2022/04/20 01:47:26;;;;;;;4.70;2.72;;;6.30;99.90;;;;;;5033403;28;20050;-74
2022/04/20 01:49:52;;;;;;;6.55;3.40;;;6.30;99.90;;;;;;5028147;28;20058;-74
2022/04/20 01:52:17;;;;;;;;;;;6.30;99.90;;;;;;5015723;28;20049;-74
2022/04/20 01:54:43;;;;;;;4.97;2.83;;;6.20;99.90;;;;;;5015096;28;19933;-74
2022/04/20 01:57:08;;;;;;;;;;;6.20;99.90;;;;;;5015703;28;20042;-73
2022/04/20 01:59:34;;;;;;;3.97;2.45;;;6.20;99.90;;;;;;5014935;28;20373;-74
2022/04/20 02:04:44;;;;;;;7.47;2.72;;;6.10;99.90;;;;;;5014232;28;20046;-74
2022/04/20 02:07:09;;;;;;;;;;;6.10;99.90;;;;;;5015289;28;20496;-74
2022/04/20 02:09:35;;;;;;;4.30;2.85;;;6.10;99.90;;;;;;5014727;28;19928;-74
2022/04/20 02:12:00;;;;;;;5.65;2.72;;;6.00;99.90;;;;;;5013984;28;20493;-74
2022/04/20 02:14:26;;;;;;;;;;;6.00;99.90;;;;;;5015618;28;20045;-74
2022/04/20 02:16:52;;;;;;;5.22;2.80;;;6.00;99.90;;;;;;5013291;28;19926;-74
2022/04/20 02:19:18;;;;;;;;;;;5.90;99.90;;;;;;5014900;28;20452;-74
2022/04/20 02:21:43;;;;;;;5.82;2.67;;;5.90;99.90;;;;;;5014262;28;20300;-74
2022/04/20 02:24:10;;;;;;;5.45;2.92;;;5.90;99.90;;;;;;5013268;28;20042;-74
2022/04/20 02:26:36;;;;;;;5.22;2.90;;;5.90;99.90;;;;;;5015053;28;20046;-74
2022/04/20 02:29:02;;;;;;;4.90;2.85;;;5.80;99.90;;;;;;5014040;28;20049;-74
2022/04/20 02:31:28;;;;;;;;;;;5.80;99.90;;;;;;5014388;28;20049;-74
2022/04/20 02:33:53;;;;;;;4.80;2.58;;;5.80;99.90;;;;;;5014752;28;20395;-74
2022/04/20 02:36:19;;;;;;;4.53;2.72;;;5.70;99.90;;;;;;5015030;28;20049;-74
2022/04/20 02:38:45;;;;;;;;;;;5.70;99.90;;;;;;5015278;28;20054;-74
2022/04/20 02:41:10;;;;;;;4.88;2.83;;;5.70;99.90;;;;;;5014321;28;19921;-74
2022/04/20 02:43:36;;;;;;;;;;;5.60;99.90;;;;;;5013318;28;20128;-74
2022/04/20 02:46:02;;;;;;;4.25;2.75;;;5.60;99.90;;;;;;5013738;28;19925;-74
2022/04/20 02:48:28;;;;;;;4.15;2.63;;;5.50;99.90;;;;;;5014473;28;20045;-74
2022/04/20 02:50:53;;;;;;;;;;;5.50;99.90;;;;;;5014559;28;20048;-74
2022/04/20 02:56:44;;;;;;;5.00;2.70;;;5.50;99.90;;;;;;5015505;28;20042;-74
2022/04/20 02:59:09;;;;;;;4.28;2.65;;;5.40;99.90;;;;;;5012097;28;20137;-73
2022/04/20 03:01:35;;;;;;;;;;;5.40;99.90;;;;;;5013472;28;20145;-74
2022/04/20 03:04:00;;;;;;;4.22;2.75;;;5.40;99.90;;;;;;5013648;28;20293;-74
2022/04/20 03:06:27;;;;;;;;;;;5.40;99.90;;;;;;5013355;28;20061;-74
2022/04/20 03:08:53;;;;;;;5.53;2.95;;;5.30;99.90;;;;;;5015215;28;19971;-74
2022/04/20 03:11:19;;;;;;;4.88;3.10;;;5.30;99.90;;;;;;5012239;28;20050;-73
2022/04/20 03:13:45;;;;;;;5.80;3.40;;;5.30;99.90;;;;;;5012673;28;20054;-74
2022/04/20 03:16:11;;;;;;;6.80;3.53;;;5.30;99.90;;;;;;5013901;28;20049;-74
2022/04/20 03:18:36;;;;;;;;;;;5.20;99.90;;;;;;5012569;28;20061;-74
2022/04/20 03:21:02;;;;;;;5.97;3.05;;;5.20;99.90;;;;;;5013439;28;19936;-73
2022/04/20 03:23:28;;;;;;;;;;;5.20;99.90;;;;;;5013856;28;20052;-74
2022/04/20 03:25:54;;;;;;;5.03;3.00;;;5.20;99.90;;;;;;5013515;28;19971;-73
2022/04/20 03:28:20;;;;;;;;;;;5.10;99.90;;;;;;5012594;28;20038;-74
2022/04/20 03:30:47;;;;;;;5.65;3.17;;;5.20;99.90;;;;;;5012837;28;19983;-74
2022/04/20 03:33:12;;;;;;;5.60;3.30;;;5.10;99.90;;;;;;5012967;28;20049;-74
2022/04/20 03:35:38;;;;;;;5.57;3.88;;;5.20;99.90;;;;;;5013426;28;20129;-73
2022/04/20 03:38:07;;;;;;;;;;;5.10;99.90;;;;;;5013593;28;20038;-73
2022/04/20 03:40:33;;;;;;;5.63;2.92;;;5.10;99.90;;;;;;5013303;28;19925;-74
2022/04/20 03:42:59;;;;;;;;;;;5.10;99.90;;;;;;5013770;28;20088;-73
2022/04/20 03:45:25;;;;;;;5.50;3.30;;;5.10;99.90;;;;;;5012540;28;19925;-74
2022/04/20 03:47:50;;;;;;;6.30;3.30;;;5.10;99.90;;;;;;5012691;28;20544;-73
2022/04/20 03:50:16;;;;;;;6.15;3.47;;;5.10;99.90;;;;;;5013225;28;20052;-74
2022/04/20 03:52:41;;;;;;;6.15;3.55;;;5.00;99.90;;;;;;5013286;28;20112;-74
2022/04/20 03:55:07;;;;;;;;;;;5.00;99.90;;;;;;5011749;28;20109;-74
2022/04/20 03:57:33;;;;;;;5.45;3.30;;;5.00;99.90;;;;;;5010898;28;19932;-74
2022/04/20 03:59:58;;;;;;;5.57;3.25;;;5.00;99.90;;;;;;5011623;28;20038;-73
2022/04/20 04:02:24;;;;;;;6.22;3.28;;;5.00;99.90;;;;;;5012939;28;20046;-74
2022/04/20 04:04:50;;;;;;;4.90;3.08;;;4.90;99.90;;;;;;5021014;28;20088;-74
2022/04/20 04:07:16;;;;;;;;;;;4.90;99.90;;;;;;5031046;28;20045;-74
2022/04/20 04:09:41;;;;;;;6.50;3.20;;;4.90;99.90;;;;;;5048425;28;19933;-74
2022/04/20 04:12:07;;;;;;;;;;;4.80;99.90;;;;;;5031835;28;20179;-73
2022/04/20 04:14:40;;;;;;;5.22;3.25;;;4.80;99.90;;;;;;5032376;28;20003;-73
2022/04/20 04:17:06;;;;;;;5.55;3.35;;;4.80;99.90;;;;;;5032529;28;20041;-74
2022/04/20 04:19:34;;;;;;;6.28;3.80;;;4.70;99.90;;;;;;5025292;28;20103;-73
2022/04/20 04:22:00;;;;;;;5.50;3.45;;;4.70;99.90;;;;;;5012020;28;20449;-73
2022/04/20 04:24:35;;;;;;;6.57;3.45;;;4.70;99.90;;;;;;5011566;28;20045;-73
2022/04/20 04:27:05;;;;;;;5.57;3.22;;;4.70;99.90;;;;;;5011353;28;20085;-74
2022/04/20 04:29:34;;;;;;;6.55;3.42;;;4.70;99.90;;;;;;5010811;28;20053;-73
2022/04/20 04:32:00;;;;;;;6.18;3.25;;;4.60;99.90;;;;;;5012494;28;20486;-73
2022/04/20 04:34:27;;;;;;;6.57;3.40;;;4.60;99.90;;;;;;5013994;28;20042;-73
2022/04/20 04:36:54;;;;;;;5.20;3.40;;;4.60;99.90;;;;;;5012065;28;20508;-73
2022/04/20 04:39:23;;;;;;;5.45;3.33;;;4.60;99.90;;;;;;5011077;28;20541;-74
2022/04/20 04:41:50;;;;;;;5.07;3.38;;;4.60;99.90;;;;;;5013014;28;20038;-74
2022/04/20 04:44:19;;;;;;;5.00;3.35;;;4.60;99.90;;;;;;5011818;28;20483;-73
2022/04/20 04:49:31;;;;;;;7.35;3.88;;;4.60;99.90;;;;;;5020011;28;20446;-72
2022/04/20 04:51:58;;;;;;;7.15;3.40;;;4.60;99.90;;;;;;5020257;28;20374;-73
2022/04/20 04:54:24;;;;;;;5.53;3.50;;;4.60;99.90;;;;;;5017840;28;20490;-73
2022/04/20 04:56:50;;;;;;;5.72;3.65;;;4.60;99.90;;;;;;5015571;28;20038;-73
2022/04/20 04:59:16;;;;;;;;;;;4.60;99.90;;;;;;5012463;28;20507;-73
2022/04/20 05:01:42;;;;;;;5.90;3.58;;;4.60;99.90;;;;;;5011285;28;19925;-73
2022/04/20 05:04:07;;;;;;;;;;;4.60;99.90;;;;;;5019849;28;20064;-73
2022/04/20 05:06:33;;;;;;;5.72;3.28;;;4.60;99.90;;;;;;5021021;28;19979;-73
2022/04/20 05:08:58;;;;;;;;;;;4.70;99.90;;;;;;5022329;28;20038;-73
2022/04/20 05:11:24;;;;;;;7.53;3.50;;;4.70;99.90;;;;;;5025283;28;19928;-72
2022/04/20 05:13:49;;;;;;;7.30;4.00;;;4.70;99.90;;;;;;5024449;28;20053;-73
2022/04/20 05:16:15;;;;;;;;;;;4.70;99.90;;;;;;5024737;28;20038;-72
2022/04/20 05:18:41;;;;;;;7.20;3.65;;;4.80;99.90;;;;;;5023811;28;19922;-73
2022/04/20 05:21:06;;;;;;;;;;;4.80;99.90;;;;;;5022843;28;20531;-72
2022/04/20 05:23:32;;;;;;;5.35;3.45;;;4.80;99.90;;;;;;5023811;28;19925;-72
2022/04/20 05:25:57;;;;;;;;;;;4.80;99.90;;;;;;5026173;28;20512;-70
2022/04/20 05:28:23;;;;;;;6.18;3.63;;;4.90;99.90;;;;;;5025092;28;19921;-69
2022/04/20 05:30:49;;;;;;;;;;;4.90;99.90;;;;;;5026540;28;20045;-72
2022/04/20 05:33:14;;;;;;;7.65;3.53;;;5.00;99.90;;;;;;5022423;28;19929;-71
2022/04/20 05:35:40;;;;;;;6.50;3.30;;;5.00;99.90;;;;;;5033563;28;20037;-73
2022/04/20 05:43:34;;;;;;;6.35;3.60;;;5.20;99.90;;;;;;5034136;28;20049;-74
2022/04/20 05:45:59;;;;;;;;;;;5.50;99.90;;;;;;5033303;28;20061;-72
2022/04/20 05:48:25;;;;;;;5.15;3.22;;;5.40;99.90;;;;;;5034064;28;19928;-73
2022/04/20 05:50:51;;;;;;;7.05;4.22;;;5.40;99.90;;;;;;5035685;28;20038;-76
2022/04/20 05:53:16;;;;;;;5.38;3.22;;;5.50;99.90;;;;;;5033134;28;20087;-82
2022/04/20 05:55:42;;;;;;;;;;;5.60;99.90;;;;;;5025076;28;20412;-81
2022/04/20 05:58:08;;;;;;;8.95;3.97;;;5.00;99.90;;;;;;5029354;28;19917;-74
2022/04/20 06:00:34;;;;;;;7.47;3.65;;;5.70;99.90;;;;;;5032191;28;20054;-73
2022/04/20 06:02:59;;;;;;;;;;;5.80;99.90;;;;;;5033602;28;20168;-75
2022/04/20 06:05:25;;;;;;;7.97;3.78;;;5.90;99.90;;;;;;5031278;28;20039;-72
2022/04/20 06:07:50;;;;;;;;;;;6.00;99.90;;;;;;5014874;28;20049;-72
2022/04/20 06:10:16;;;;;;;8.40;4.20;;;6.00;99.90;;;;;;5014974;28;20388;-68
2022/04/20 06:12:42;;;;;;;;;;;6.10;99.90;;;;;;5022426;28;20073;-75
2022/04/20 06:15:08;;;;;;;7.05;3.45;;;6.20;99.90;;;;;;5032565;28;19929;-72
2022/04/20 06:17:34;;;;;;;7.07;4.30;;;6.30;99.90;;;;;;5020208;28;20474;-80
2022/04/20 06:20:00;;;;;;;;;;;6.30;99.90;;;;;;5023459;28;20065;-78
2022/04/20 06:22:26;;;;;;;7.18;4.40;;;6.40;99.90;;;;;;5032846;28;19986;-76
2022/04/20 06:24:51;;;;;;;;;;;6.50;99.90;;;;;;5033903;28;20453;-71
2022/04/20 06:27:17;;;;;;;7.82;3.70;;;6.60;99.90;;;;;;5032974;28;20003;-78
2022/04/20 06:29:42;;;;;;;;;;;6.70;99.90;;;;;;5034802;28;20053;-70
2022/04/20 06:32:08;;;;;;;6.03;3.65;;;6.80;99.90;;;;;;5034206;28;19971;-70
2022/04/20 06:34:34;;;;;;;;;;;6.90;99.90;;;;;;5033776;28;20050;-75
2022/04/20 06:37:00;;;;;;;7.22;4.05;;;7.00;99.90;;;;;;5032248;28;19979;-72
2022/04/20 06:39:26;;;;;;;;;;;7.10;99.90;;;;;;5034904;28;20057;-73
2022/04/20 06:41:51;;;;;;;7.13;4.10;;;7.30;99.90;;;;;;5033561;28;19936;-70
2022/04/20 06:44:17;;;;;;;;;;;7.40;99.90;;;;;;5026395;28;20053;-72
2022/04/20 06:46:43;;;;;;;6.75;4.50;;;7.50;99.90;;;;;;5033690;28;19925;-71
2022/04/20 06:49:09;;;;;;;;;;;7.60;99.90;;;;;;5029547;28;20052;-68
2022/04/20 06:58:31;;;;;;;8.35;4.28;;;7.70;99.90;;;;;;5029431;28;19943;-69
2022/04/20 06:59:50;;;;;;;8.23;4.25;;;8.10;99.90;;;;;;5021904;28;20050;-66
2022/04/20 07:02:15;;;;;;;6.45;3.85;;;8.30;99.90;;;;;;5012657;28;20056;-68
2022/04/20 07:04:41;;;;;;;;;;;8.40;99.90;;;;;;5020595;28;20041;-68
2022/04/20 07:07:06;;;;;;;8.20;3.88;;;8.50;99.90;;;;;;5031948;28;19924;-71
2022/04/20 07:09:32;;;;;;;8.35;3.75;;;8.90;99.90;;;;;;5024402;28;20042;-69
2022/04/20 07:11:58;;;;;;;;;;;8.70;99.90;;;;;;5018530;28;20523;-71
2022/04/20 07:14:23;;;;;;;8.38;3.97;;;8.80;99.90;;;;;;5033290;28;20304;-70
2022/04/20 07:16:49;;;;;;;;;;;8.90;99.90;;;;;;5033331;28;20041;-69
2022/04/20 07:19:14;;;;;;;6.22;3.80;;;9.20;99.90;;;;;;5032764;28;20365;-71
2022/04/20 07:21:40;;;;;;;;;;;10.00;99.90;;;;;;5034074;28;20053;-70
2022/04/20 07:24:05;;;;;;;6.00;3.53;;;11.20;99.90;;;;;;5017773;28;20292;-69
2022/04/20 07:26:31;;;;;;;;;;;12.40;99.90;;;;;;5024615;28;20041;-69
2022/04/20 07:28:56;;;;;;;5.85;3.83;;;13.40;99.90;;;;;;5024937;28;19928;-70
2022/04/20 07:31:22;;;;;;;;;;;14.30;99.90;;;;;;5015338;28;20831;-71
2022/04/20 07:33:47;;;;;;;4.60;3.00;;;14.90;97.20;;;;;;5012351;28;19925;-71
2022/04/20 07:36:13;;;;;;;;;;;15.60;96.50;;;;;;5045609;28;20050;-69
2022/04/20 07:38:38;;;;;;;5.70;3.30;;;16.10;95.70;;;;;;5025467;28;20285;-71
2022/04/20 07:41:04;;;;;;;;;;;16.90;95.40;;;;;;5033935;28;20046;-72
2022/04/20 07:43:30;;;;;;;4.88;3.03;;;17.10;89.30;;;;;;5032139;28;19921;-69
2022/04/20 07:45:55;;;;;;;8.68;3.40;;;17.40;92.70;;;;;;5030672;28;20045;-67
2022/04/20 07:48:21;;;;;;;6.00;3.05;;;17.80;91.90;;;;;;5023766;28;20080;-66
2022/04/20 07:50:47;;;;;;;6.40;3.35;;;18.10;90.70;;;;;;5021198;28;20075;-70
2022/04/20 07:53:12;;;;;;;5.70;3.55;;;18.50;86.40;;;;;;5012173;28;20042;-74
2022/04/20 07:55:39;;;;;;;5.13;3.25;;;18.80;87.10;;;;;;5012524;28;20046;-68
2022/04/20 07:58:05;;;;;;;5.75;3.67;;;19.00;80.30;;;;;;5020585;28;20489;-68
2022/04/20 08:00:31;;;;;;;7.55;3.20;;;18.90;83.40;;;;;;5021789;28;20041;-68
2022/04/20 08:03:26;;;;;;;6.05;3.35;;;19.00;81.40;;;;;;5011661;28;20124;-69
2022/04/20 08:05:54;;;;;;;4.18;2.90;;;19.40;73.40;;;;;;5025608;28;20057;-68
2022/04/20 08:08:23;;;;;;;4.25;2.80;;;20.10;79.60;;;;;;5032091;28;20041;-70
2022/04/20 08:10:49;;;;;;;4.97;2.90;;;20.40;74.70;;;;;;5031272;28;20508;-66
2022/04/20 08:15:58;;;;;;;5.18;2.85;;;20.80;69.10;;;;;;5030920;28;20137;-68
2022/04/20 08:18:26;;;;;;;5.05;2.70;;;20.60;65.20;;;;;;5021021;28;20133;-67
2022/04/20 08:20:51;;;;;;;4.93;2.78;;;20.60;66.50;;;;;;5010840;28;20062;-68
2022/04/20 08:23:17;;;;;;;4.57;2.75;;;21.00;66.90;;;;;;5012520;28;20133;-68
2022/04/20 08:25:43;;;;;;;4.15;2.85;;;21.30;66.00;;;;;;5017189;28;20041;-72
2022/04/20 08:28:10;;;;;;;3.78;2.63;;;20.90;58.10;;;;;;5026448;28;20493;-71
2022/04/20 08:30:37;;;;;;;3.60;2.47;;;20.80;59.40;;;;;;5033102;28;20128;-67
2022/04/20 08:33:07;;;;;;;4.32;2.60;;;21.40;60.80;;;;;;5032266;28;20056;-71
2022/04/20 08:35:37;;;;;;;3.38;2.20;;;21.50;59.50;;;;;;5030527;28;20052;-71
2022/04/20 08:38:06;;;;;;;4.07;2.50;;;21.90;57.90;;;;;;5030651;28;20405;-70
2022/04/20 08:40:33;;;;;;;3.58;2.25;;;21.50;54.70;;;;;;5030614;28;20508;-71
2022/04/20 08:43:01;;;;;;;4.30;2.40;;;21.90;57.70;;;;;;5030753;28;20117;-70
2022/04/20 08:45:28;;;;;;;3.33;2.10;;;22.00;53.10;;;;;;5017118;28;20049;-69
2022/04/20 08:47:56;;;;;;;4.75;2.40;;;22.40;55.60;;;;;;5012416;28;20501;-72
2022/04/20 08:50:24;;;;;;;3.25;2.10;;;22.20;53.10;;;;;;5011257;28;20394;-74
2022/04/20 08:52:51;;;;;;;3.42;2.17;;;22.50;51.20;;;;;;5011257;28;20045;-71
2022/04/20 08:55:18;;;;;;;3.50;2.10;;;22.30;51.10;;;;;;5010779;28;20084;-68
2022/04/20 08:57:47;;;;;;;3.92;1.90;;;22.20;51.10;;;;;;5013150;28;20064;-70
2022/04/20 09:00:21;;;;;;;3.70;1.92;;;22.30;51.40;;;;;;5012363;28;20418;-71
2022/04/20 09:02:50;;;;;;;3.55;2.28;;;22.40;51.20;;;;;;5012302;28;20037;-71
2022/04/20 09:05:15;;;;;;;3.58;2.20;;;22.90;49.90;;;;;;5015233;28;20533;-75
2022/04/20 09:07:41;;;;;;;3.22;2.08;;;22.80;48.70;;;;;;5027623;28;20140;-74
2022/04/20 09:10:07;;;;;;;4.60;2.03;;;23.00;50.50;;;;;;5029119;28;20481;-73
2022/04/20 09:12:32;;;;;;;3.45;2.30;;;23.60;51.80;;;;;;5030299;28;20059;-74
2022/04/20 09:15:00;;;;;;;3.67;2.17;;;23.30;49.80;;;;;;5010620;28;20033;-76
2022/04/20 09:17:26;;;;;;;3.63;2.20;;;23.20;50.10;;;;;;5025010;28;20041;-75
2022/04/20 09:19:56;;;;;;;3.47;2.10;;;23.00;49.30;;;;;;5015753;28;20559;-76
2022/04/20 09:22:27;;;;;;;3.20;1.90;;;23.20;49.70;;;;;;5011988;28;20084;-76
2022/04/20 09:24:57;;;;;;;2.95;1.85;;;23.40;49.00;;;;;;5010309;28;20049;-77
2022/04/20 09:27:24;;;;;;;3.38;1.85;;;23.30;47.30;;;;;;5014005;28;20046;-78
2022/04/20 09:29:55;;;;;;;4.03;2.10;;;23.20;46.40;;;;;;5027865;28;20614;-77
2022/04/20 09:32:41;;;;;;;3.17;1.90;;;22.90;47.80;;;;;;5028344;28;20049;-78
2022/04/20 09:35:09;;;;;;;2.45;1.52;;;22.90;47.40;;;;;;5031814;28;20057;-77
2022/04/20 09:37:36;;;;;;;4.70;2.10;;;22.90;49.60;;;;;;5030700;28;20050;-77
2022/04/20 09:40:04;;;;;;;2.88;1.90;;;22.80;49.10;;;;;;5029715;28;20045;-74
2022/04/20 09:42:31;;;;;;;3.03;1.80;;;23.30;49.40;;;;;;5017189;28;20065;-71
2022/04/20 09:45:02;;;;;;;2.95;1.92;;;23.60;46.00;;;;;;5011167;28;20434;-77
2022/04/20 09:50:21;;;;;;;3.22;1.88;;;23.30;45.60;;;;;;5022369;28;20374;-74
2022/04/20 09:52:48;;;;;;;3.22;1.23;;;23.20;45.50;;;;;;5029810;28;20053;-76
2022/04/20 09:55:36;;;;;;;2.30;1.38;;;23.30;45.20;;;;;;5032572;28;20037;-72
2022/04/20 09:58:12;;;;;;;2.70;1.60;;;23.50;44.60;;;;;;5034272;28;20053;-73
2022/04/20 10:00:39;;;;;;;;;;;23.10;44.80;;;;;;5033943;28;20038;-74
2022/04/20 10:03:05;;;;;;;4.10;1.60;;;23.40;45.50;;;;;;5033994;28;19928;-74
2022/04/20 10:05:31;;;;;;;2.67;1.60;;;23.70;44.90;;;;;;5034968;28;20037;-74
2022/04/20 10:07:59;;;;;;;2.80;1.60;;;23.50;44.40;;;;;;5033938;28;20049;-73
2022/04/20 10:10:30;;;;;;;4.00;1.80;;;23.40;44.20;;;;;;5033508;28;20072;-73
2022/04/20 10:12:56;;;;;;;3.10;1.65;;;23.60;46.20;;;;;;5034588;28;20053;-73
2022/04/20 10:18:13;;;;;;;3.10;1.67;;;23.70;43.50;;;;;;5034588;28;20045;-76
2022/04/20 10:20:43;;;;;;;6.90;1.80;;;23.50;43.60;;;;;;5032651;28;20119;-75
2022/04/20 10:23:10;;;;;;;2.72;1.60;;;23.10;43.50;;;;;;5027786;28;20449;-76
2022/04/20 10:25:38;;;;;;;2.67;1.50;;;23.30;44.90;;;;;;5013756;28;20394;-74
2022/04/20 10:28:17;;;;;;;3.17;1.70;;;23.50;44.50;;;;;;5013979;28;20042;-71
2022/04/20 10:30:42;;;;;;;4.03;1.60;;;23.80;43.60;;;;;;5020390;28;20065;-71
2022/04/20 10:33:24;;;;;;;2.42;1.60;;;24.00;42.70;;;;;;5023926;28;20046;-72
2022/04/20 10:35:55;;;;;;;3.60;1.50;;;23.80;44.10;;;;;;5012813;28;20050;-75
2022/04/20 10:38:21;;;;;;;2.72;1.40;;;23.50;43.00;;;;;;5014298;28;20489;-76
2022/04/20 10:40:59;;;;;;;3.15;1.80;;;23.60;41.90;;;;;;5012306;28;20037;-76
2022/04/20 10:43:27;;;;;;;3.13;1.40;;;23.40;42.90;;;;;;5012563;28;20474;-75
2022/04/20 10:46:07;;;;;;;2.58;1.48;;;23.40;42.50;;;;;;5024993;28;20088;-76
2022/04/20 10:48:58;;;;;;;3.58;1.70;;;23.40;41.80;;;;;;5033973;28;20049;-76
2022/04/20 10:51:30;;;;;;;2.80;1.60;;;23.50;42.70;;;;;;5028869;28;20045;-76
2022/04/20 10:57:45;;;;;;;2.35;1.40;;;23.90;43.50;;;;;;5020899;28;20072;-74
2022/04/20 11:00:17;;;;;;;3.13;1.70;;;23.60;43.40;;;;;;5025430;28;20161;-74
2022/04/20 11:02:50;;;;;;;2.50;1.40;;;23.90;43.00;;;;;;5013194;28;20049;-76
2022/04/20 11:05:20;;;;;;;4.80;1.90;;;23.70;42.30;;;;;;5030891;28;20839;-74
2022/04/20 11:08:06;;;;;;;2.58;1.60;;;23.90;43.70;;;;;;5014523;28;20065;-75
2022/04/20 11:10:34;;;;;;;3.20;1.65;;;23.70;44.60;;;;;;5014445;28;20049;-74
2022/04/20 11:19:04;;;;;;;2.65;1.58;;;23.30;42.10;;;;;;5014774;28;20061;-76
2022/04/20 11:21:30;;;;;;;2.22;1.50;;;23.10;43.90;;;;;;5001388;28;20046;-75
2022/04/20 11:24:03;;;;;;;2.70;1.70;;;23.50;43.00;;;;;;4994658;28;20089;-75
2022/04/20 11:26:48;;;;;;;2.33;1.52;;;23.40;44.50;;;;;;5008583;28;20049;-74
2022/04/20 11:29:15;;;;;;;4.00;1.55;;;23.80;43.70;;;;;;5030579;28;20052;-74
2022/04/20 11:31:42;;;;;;;2.53;1.52;;;23.30;41.90;;;;;;5031389;28;20041;-75
2022/04/20 11:34:09;;;;;;;2.55;1.70;;;23.20;42.70;;;;;;5031666;28;20041;-74
2022/04/20 11:36:43;;;;;;;2.85;1.60;;;23.30;42.40;;;;;;5033462;28;20389;-73
2022/04/20 11:39:10;;;;;;;3.83;1.70;;;23.00;41.30;;;;;;5032082;28;20041;-74
2022/04/20 11:41:36;;;;;;;2.67;1.50;;;22.60;41.70;;;;;;5032265;28;20053;-74
2022/04/20 11:44:03;;;;;;;2.40;1.40;;;23.10;43.10;;;;;;5032818;28;20081;-74
2022/04/20 11:46:30;;;;;;;2.83;1.50;;;23.00;42.20;;;;;;5018987;28;20054;-74
2022/04/20 11:48:58;;;;;;;3.83;1.98;;;23.60;43.80;;;;;;5012276;28;20073;-73
2022/04/20 11:51:27;;;;;;;4.03;1.60;;;23.50;43.50;;;;;;5011686;28;20045;-73
2022/04/20 11:53:53;;;;;;;2.30;1.38;;;23.50;41.80;;;;;;5012452;28;20058;-74
2022/04/20 11:56:36;;;;;;;3.38;1.60;;;23.30;42.40;;;;;;5013263;28;20033;-73
2022/04/20 11:59:05;;;;;;;3.25;1.70;;;23.30;43.40;;;;;;5011440;28;20050;-74
2022/04/20 12:01:33;;;;;;;2.97;1.50;;;23.30;44.20;;;;;;5014394;28;20133;-74
2022/04/20 12:04:01;;;;;;;4.18;1.50;;;23.10;41.90;;;;;;5012807;28;20524;-74
2022/04/20 12:06:28;;;;;;;2.30;1.50;;;23.30;43.80;;;;;;5011682;28;20132;-74
2022/04/20 12:08:54;;;;;;;3.65;1.55;;;23.30;43.20;;;;;;5013567;28;20049;-73
2022/04/20 12:11:20;;;;;;;3.00;1.80;;;23.30;43.00;;;;;;5012928;28;20054;-73
2022/04/20 12:13:45;;;;;;;2.47;1.50;;;23.30;43.60;;;;;;5011349;28;20054;-80
2022/04/20 12:16:13;;;;;;;2.17;1.30;;;23.00;43.40;;;;;;5013665;28;20050;-81
2022/04/20 12:18:46;;;;;;;5.55;1.92;;;22.70;44.20;;;;;;5010542;28;20411;-80
2022/04/20 12:21:36;;;;;;;3.90;2.58;;;22.40;45.70;;;;;;5012084;28;20045;-73
2022/04/20 12:24:03;;;;;;;4.50;2.70;;;22.70;50.00;;;;;;5012706;28;20057;-72
2022/04/20 12:26:30;;;;;;;5.00;2.80;;;22.90;50.90;;;;;;5012705;28;20092;-79
2022/04/20 12:29:03;;;;;;;3.58;2.25;;;22.60;50.20;;;;;;5020519;28;20045;-78
2022/04/20 12:31:33;;;;;;;4.35;2.53;;;22.60;51.30;;;;;;5020329;28;20041;-83
2022/04/20 12:34:07;;;;;;;3.78;2.70;;;22.70;50.80;;;;;;5018749;28;20049;-82
2022/04/20 12:37:14;;;;;;;5.35;2.85;;;22.80;51.70;;;;;;5031665;28;20136;-71
2022/04/20 12:39:42;;;;;;;3.72;2.40;;;22.70;52.70;;;;;;5032079;28;20046;-71
2022/04/20 12:42:17;;;;;;;5.45;2.90;;;22.30;51.80;;;;;;5018407;28;20053;-71
2022/04/20 12:44:52;;;;;;;4.55;2.40;;;22.00;52.30;;;;;;5011157;28;20045;-71
2022/04/20 12:47:18;;;;;;;4.13;2.60;;;21.90;52.70;;;;;;5029480;28;20049;-71
2022/04/20 12:49:45;;;;;;;4.45;2.80;;;21.80;53.30;;;;;;5031749;28;20111;-71
2022/04/20 12:52:16;;;;;;;4.22;2.67;;;21.70;53.70;;;;;;5031996;28;20034;-71
2022/04/20 12:55:14;;;;;;;3.83;2.30;;;21.60;54.40;;;;;;5031361;28;20041;-70
2022/04/20 13:03:39;;;;;;;3.88;2.75;;;21.00;55.30;;;;;;5009829;28;20504;-72
2022/04/20 13:06:06;;;;;;;4.55;2.60;;;20.60;54.20;;;;;;5027039;28;20397;-72
2022/04/20 13:08:33;;;;;;;5.00;2.70;;;20.50;56.20;;;;;;5032269;28;20041;-72
2022/04/20 13:10:58;;;;;;;3.53;2.50;;;20.70;57.60;;;;;;5015943;28;20046;-72
2022/04/20 13:13:28;;;;;;;3.67;2.55;;;21.10;58.80;;;;;;5015965;28;20147;-73
2022/04/20 13:15:54;;;;;;;3.45;2.30;;;20.80;57.90;;;;;;5031714;28;20120;-72
2022/04/20 13:18:20;;;;;;;6.40;2.63;;;20.60;61.10;;;;;;5031769;28;20048;-72
2022/04/20 13:20:46;;;;;;;4.13;2.80;;;20.60;62.10;;;;;;5030737;28;20058;-72
2022/04/20 13:23:12;;;;;;;6.78;2.80;;;20.60;61.80;;;;;;5029515;28;20041;-73
2022/04/20 13:28:22;;;;;;;6.85;2.80;;;20.40;61.70;;;;;;5030669;28;20489;-74
2022/04/20 13:30:49;;;;;;;6.25;2.47;;;20.70;61.70;;;;;;5023422;28;20129;-74
2022/04/20 13:33:15;;;;;;;5.32;3.30;;;19.90;62.40;;;;;;5015855;28;20042;-76
2022/04/20 13:35:42;;;;;;;6.10;3.10;;;20.00;61.80;;;;;;5015980;28;20096;-75
2022/04/20 13:38:11;;;;;;;4.65;2.80;;;19.80;62.30;;;;;;5029805;28;20076;-74
2022/04/20 13:40:38;;;;;;;4.90;2.63;;;19.80;62.00;;;;;;5035449;28;20496;-74
2022/04/20 13:43:05;;;;;;;4.45;2.70;;;19.90;61.40;;;;;;5033917;28;20052;-74
2022/04/20 13:45:31;;;;;;;5.65;3.10;;;19.80;59.70;;;;;;5034909;28;20409;-73
2022/04/20 13:47:57;;;;;;;5.28;3.10;;;19.80;58.60;;;;;;5031931;28;20048;-73
2022/04/20 13:50:23;;;;;;;4.65;2.70;;;19.70;60.20;;;;;;5034558;28;20516;-73
2022/04/20 13:52:49;;;;;;;6.53;2.95;;;19.70;59.20;;;;;;5026750;28;20099;-73
2022/04/20 13:55:15;;;;;;;4.88;2.63;;;19.40;58.80;;;;;;5013867;28;20132;-74